createdAt,value
2023-03-16T00:00:13.989Z,95.00
2023-03-16T00:03:02.751Z,94.60
2023-03-16T00:05:31.125Z,94.60
2023-03-16T00:07:59.788Z,94.50
2023-03-16T00:10:28.225Z,94.20
2023-03-16T00:12:57.362Z,94.10
2023-03-16T00:15:25.671Z,93.90
2023-03-16T00:17:55.003Z,93.60
2023-03-16T00:20:23.261Z,93.60
2023-03-16T00:22:51.873Z,93.60
2023-03-16T00:25:20.138Z,93.30
2023-03-16T00:27:48.697Z,93.40
2023-03-16T00:30:17.361Z,93.20
2023-03-16T00:32:46.057Z,92.80
2023-03-16T00:35:14.347Z,93.10
2023-03-16T00:37:44.402Z,92.80
2023-03-16T00:40:13.076Z,93.00
2023-03-16T00:42:41.955Z,92.90
2023-03-16T00:45:11.075Z,92.80
2023-03-16T00:47:39.838Z,92.50
2023-03-16T00:50:08.394Z,92.40
2023-03-16T00:52:37.073Z,92.30
2023-03-16T00:55:05.904Z,92.20
2023-03-16T00:57:34.982Z,92.10
2023-03-16T01:00:13.101Z,92.10
2023-03-16T01:02:42.290Z,91.90
2023-03-16T01:05:11.341Z,92.00
2023-03-16T01:07:40.753Z,91.80
2023-03-16T01:10:10.047Z,91.80
2023-03-16T01:12:41.331Z,91.80
2023-03-16T01:15:10.594Z,91.60
2023-03-16T01:17:39.500Z,91.50
2023-03-16T01:20:12.177Z,91.40
2023-03-16T01:22:40.751Z,91.60
2023-03-16T01:25:12.346Z,91.50
2023-03-16T01:27:43.314Z,91.60
2023-03-16T01:30:12.631Z,91.50
2023-03-16T01:32:41.965Z,91.60
2023-03-16T01:35:12.513Z,91.50
2023-03-16T01:37:41.603Z,91.80
2023-03-16T01:40:16.213Z,91.60
2023-03-16T01:42:50.540Z,91.70
2023-03-16T01:45:57.835Z,91.60
2023-03-16T01:48:27.645Z,91.50
2023-03-16T01:50:56.792Z,92.00
2023-03-16T01:53:26.960Z,91.60
2023-03-16T01:55:55.499Z,91.70
2023-03-16T01:58:24.156Z,91.50
2023-03-16T02:00:52.422Z,91.40
2023-03-16T02:03:23.932Z,91.40
2023-03-16T02:06:15.757Z,91.50
2023-03-16T02:08:50.175Z,91.30
2023-03-16T02:11:18.472Z,91.50
2023-03-16T02:14:14.515Z,91.20
2023-03-16T02:16:45.114Z,91.20
2023-03-16T02:19:54.113Z,91.10
2023-03-16T02:22:25.298Z,91.30
2023-03-16T02:24:54.862Z,91.30
2023-03-16T02:27:44.296Z,91.10
2023-03-16T02:30:18.009Z,91.10
2023-03-16T02:33:08.056Z,91.10
2023-03-16T02:35:37.098Z,91.00
2023-03-16T02:38:05.728Z,91.00
2023-03-16T02:40:44.065Z,91.00
2023-03-16T02:43:23.277Z,90.80
2023-03-16T02:46:12.225Z,91.00
2023-03-16T02:49:05.948Z,90.90
2023-03-16T02:51:34.847Z,90.80
2023-03-16T02:54:03.569Z,90.90
2023-03-16T02:56:36.130Z,90.60
2023-03-16T02:59:04.519Z,90.70
2023-03-16T03:01:35.089Z,90.70
2023-03-16T03:04:04.235Z,90.80
2023-03-16T03:06:34.236Z,90.60
2023-03-16T03:09:03.898Z,90.40
2023-03-16T03:11:32.650Z,90.70
2023-03-16T03:14:01.241Z,90.50
2023-03-16T03:16:31.762Z,90.30
2023-03-16T03:19:00.392Z,90.20
2023-03-16T03:21:32.346Z,90.20
2023-03-16T03:24:02.783Z,90.10
2023-03-16T03:26:31.457Z,90.20
2023-03-16T03:29:01.703Z,90.00
2023-03-16T03:31:30.820Z,90.00
2023-03-16T03:33:59.806Z,90.00
2023-03-16T03:36:28.359Z,90.20
2023-03-16T03:38:56.833Z,90.00
2023-03-16T03:41:26.257Z,90.00
2023-03-16T03:43:55.240Z,89.20
2023-03-16T03:46:24.713Z,89.90
2023-03-16T03:48:53.389Z,89.40
2023-03-16T03:51:22.199Z,89.60
2023-03-16T03:53:59.838Z,89.80
2023-03-16T03:56:54.855Z,89.60
2023-03-16T03:59:23.629Z,89.30
2023-03-16T04:02:16.171Z,89.20
2023-03-16T04:04:52.080Z,89.00
2023-03-16T04:07:21.049Z,89.00
2023-03-16T04:09:51.906Z,88.70
2023-03-16T04:12:29.376Z,88.40
2023-03-16T04:14:57.938Z,89.10
2023-03-16T04:17:29.278Z,88.50
2023-03-16T04:20:02.218Z,88.60
2023-03-16T04:22:31.585Z,88.40
2023-03-16T04:24:59.936Z,88.60
2023-03-16T04:27:29.965Z,88.50
2023-03-16T04:29:59.823Z,89.10
2023-03-16T04:32:29.630Z,88.30
2023-03-16T04:34:59.416Z,88.20
2023-03-16T04:37:40.383Z,88.20
2023-03-16T04:40:16.438Z,87.30
2023-03-16T04:42:50.177Z,87.80
2023-03-16T04:45:21.927Z,87.30
2023-03-16T04:47:54.187Z,87.90
2023-03-16T04:50:22.975Z,87.30
2023-03-16T04:52:55.113Z,87.10
2023-03-16T04:55:23.660Z,87.40
2023-03-16T04:57:53.229Z,87.20
2023-03-16T05:00:23.771Z,87.10
2023-03-16T05:03:04.660Z,86.90
2023-03-16T05:05:33.492Z,87.90
2023-03-16T05:08:02.205Z,87.70
2023-03-16T05:10:34.395Z,87.50
2023-03-16T05:13:03.547Z,87.40
2023-03-16T05:15:32.183Z,88.50
2023-03-16T05:18:15.756Z,89.10
2023-03-16T05:20:44.114Z,88.30
2023-03-16T05:23:13.544Z,88.10
2023-03-16T05:25:48.667Z,88.30
2023-03-16T05:28:20.474Z,88.80
2023-03-16T05:31:12.064Z,88.60
2023-03-16T05:33:45.300Z,88.20
2023-03-16T05:36:18.630Z,88.00
2023-03-16T05:38:51.623Z,87.80
2023-03-16T05:41:34.409Z,87.90
2023-03-16T05:44:12.480Z,87.70
2023-03-16T05:47:04.273Z,87.60
2023-03-16T05:49:35.391Z,87.30
2023-03-16T05:52:08.374Z,87.10
2023-03-16T05:54:37.907Z,86.90
2023-03-16T05:57:07.228Z,87.00
2023-03-16T05:59:37.021Z,87.00
2023-03-16T06:02:06.268Z,87.00
2023-03-16T06:04:35.959Z,86.80
2023-03-16T06:07:04.858Z,86.90
2023-03-16T06:09:33.999Z,87.00
2023-03-16T06:12:05.342Z,87.20
2023-03-16T06:14:35.218Z,87.30
2023-03-16T06:17:03.571Z,87.10
2023-03-16T06:19:33.881Z,87.00
2023-03-16T06:22:03.715Z,87.20
2023-03-16T06:24:32.866Z,87.20
2023-03-16T06:27:01.265Z,87.20
2023-03-16T06:29:36.297Z,87.40
2023-03-16T06:32:05.559Z,87.30
2023-03-16T06:34:35.439Z,87.30
2023-03-16T06:37:06.292Z,87.10
2023-03-16T06:39:35.156Z,87.20
2023-03-16T06:42:05.066Z,87.10
2023-03-16T06:44:34.575Z,87.10
2023-03-16T06:47:10.756Z,87.00
2023-03-16T06:49:40.390Z,86.80
2023-03-16T06:52:16.628Z,86.80
2023-03-16T06:54:45.435Z,86.90
2023-03-16T06:57:14.910Z,86.80
2023-03-16T06:59:44.756Z,86.80
2023-03-16T07:02:14.792Z,87.20
2023-03-16T07:05:02.878Z,86.80
2023-03-16T07:07:32.442Z,86.80
2023-03-16T07:10:01.957Z,86.60
2023-03-16T07:12:31.728Z,86.70
2023-03-16T07:15:01.415Z,86.60
2023-03-16T07:17:33.530Z,87.00
2023-03-16T07:20:10.797Z,86.80
2023-03-16T07:22:41.980Z,86.80
2023-03-16T07:25:14.229Z,86.90
2023-03-16T07:27:58.013Z,87.40
2023-03-16T07:30:32.479Z,87.70
2023-03-16T07:33:02.413Z,87.40
2023-03-16T07:35:34.010Z,87.60
2023-03-16T07:38:02.977Z,87.80
2023-03-16T07:40:31.860Z,88.00
2023-03-16T07:43:09.996Z,88.00
2023-03-16T07:45:51.691Z,88.00
2023-03-16T07:48:21.811Z,88.30
2023-03-16T07:51:03.259Z,88.10
2023-03-16T07:53:36.681Z,88.10
2023-03-16T07:56:17.467Z,88.20
2023-03-16T07:58:50.542Z,88.40
2023-03-16T08:01:19.229Z,88.50
2023-03-16T08:03:54.102Z,88.50
2023-03-16T08:06:25.526Z,88.60
2023-03-16T08:08:55.382Z,88.70
2023-03-16T08:11:36.999Z,88.90
2023-03-16T08:14:06.385Z,89.00
2023-03-16T08:16:55.086Z,89.00
2023-03-16T08:19:27.613Z,89.20
2023-03-16T08:22:02.235Z,89.30
2023-03-16T08:24:39.652Z,79.80
2023-03-16T08:27:12.186Z,75.40
2023-03-16T08:29:46.397Z,73.30
2023-03-16T08:34:50.705Z,72.50
2023-03-16T08:37:24.351Z,72.70
2023-03-16T08:40:00.570Z,72.40
2023-03-16T08:42:31.513Z,72.60
2023-03-16T08:45:12.360Z,72.60
2023-03-16T08:47:44.658Z,72.40
2023-03-16T08:50:20.091Z,74.20
2023-03-16T08:52:51.427Z,75.10
2023-03-16T08:55:20.950Z,76.30
2023-03-16T08:57:52.300Z,78.10
2023-03-16T09:00:22.278Z,75.40
2023-03-16T09:02:52.022Z,73.30
2023-03-16T09:05:21.634Z,73.20
2023-03-16T09:07:50.220Z,73.90
2023-03-16T09:10:23.218Z,70.60
2023-03-16T09:12:52.568Z,68.70
2023-03-16T09:15:22.029Z,66.30
2023-03-16T09:17:51.247Z,64.20
2023-03-16T09:20:26.387Z,65.90
2023-03-16T09:22:56.587Z,66.50
2023-03-16T09:25:26.263Z,67.30
2023-03-16T09:27:56.200Z,68.10
2023-03-16T09:30:26.714Z,68.90
2023-03-16T09:32:56.916Z,67.90
2023-03-16T09:35:26.797Z,67.90
2023-03-16T09:38:06.588Z,63.40
2023-03-16T09:40:39.785Z,62.40
2023-03-16T09:44:01.110Z,64.00
2023-03-16T09:46:49.579Z,66.10
2023-03-16T09:49:24.300Z,61.40
2023-03-16T09:52:21.009Z,61.40
2023-03-16T09:55:14.526Z,64.70
2023-03-16T09:57:46.752Z,67.00
2023-03-16T10:00:25.684Z,67.80
2023-03-16T10:03:24.500Z,68.40
2023-03-16T10:06:02.356Z,69.00
2023-03-16T10:08:41.146Z,69.80
2023-03-16T10:11:32.405Z,70.20
2023-03-16T10:14:34.208Z,70.90
2023-03-16T10:17:31.923Z,71.60
2023-03-16T10:20:09.395Z,71.80
2023-03-16T10:22:45.455Z,72.00
2023-03-16T10:25:22.675Z,72.10
2023-03-16T10:27:52.550Z,73.30
2023-03-16T10:30:28.531Z,72.70
2023-03-16T10:33:02.037Z,72.80
2023-03-16T10:35:49.200Z,73.10
2023-03-16T10:38:41.456Z,73.40
2023-03-16T10:41:32.504Z,74.10
2023-03-16T10:44:39.768Z,74.50
2023-03-16T10:47:19.482Z,74.60
2023-03-16T10:49:51.700Z,74.60
2023-03-16T10:52:47.019Z,74.50
2023-03-16T10:55:30.595Z,74.70
2023-03-16T10:58:00.060Z,74.60
2023-03-16T11:00:46.966Z,75.00
2023-03-16T11:03:40.278Z,75.50
2023-03-16T11:06:31.673Z,75.80
2023-03-16T11:09:21.476Z,76.30
2023-03-16T11:11:50.557Z,72.80
2023-03-16T11:14:27.757Z,69.90
2023-03-16T11:17:09.696Z,69.90
2023-03-16T11:19:53.948Z,67.80
2023-03-16T11:22:26.545Z,64.60
2023-03-16T11:25:04.005Z,62.90
2023-03-16T11:27:54.304Z,63.50
2023-03-16T11:30:42.655Z,63.30
2023-03-16T11:33:14.301Z,66.00
2023-03-16T11:36:22.179Z,64.00
2023-03-16T11:39:18.431Z,63.40
2023-03-16T11:42:29.936Z,62.60
2023-03-16T11:45:12.922Z,64.70
2023-03-16T11:47:56.888Z,64.60
2023-03-16T11:50:29.253Z,63.70
2023-03-16T11:53:33.334Z,61.50
2023-03-16T11:56:27.546Z,57.80
2023-03-16T11:59:34.425Z,55.70
2023-03-16T12:02:33.404Z,58.50
2023-03-16T12:05:33.424Z,58.90
2023-03-16T12:08:25.859Z,59.90
2023-03-16T12:11:23.459Z,59.20
2023-03-16T12:14:11.465Z,57.80
2023-03-16T12:16:49.430Z,57.40
2023-03-16T12:19:40.369Z,58.60
2023-03-16T12:22:42.305Z,59.30
2023-03-16T12:25:26.178Z,61.20
2023-03-16T12:27:56.365Z,58.20
2023-03-16T12:30:48.226Z,58.60
2023-03-16T12:33:55.435Z,59.00
2023-03-16T12:36:38.145Z,58.90
2023-03-16T12:39:14.011Z,58.60
2023-03-16T12:42:06.017Z,58.60
2023-03-16T12:45:02.470Z,57.60
2023-03-16T12:47:54.646Z,57.90
2023-03-16T12:50:24.625Z,58.10
2023-03-16T12:52:56.514Z,57.70
2023-03-16T12:55:37.510Z,57.30
2023-03-16T12:58:07.810Z,57.00
2023-03-16T13:00:40.823Z,57.10
2023-03-16T13:03:21.417Z,59.50
2023-03-16T13:05:56.147Z,59.00
2023-03-16T13:08:24.952Z,58.80
2023-03-16T13:11:06.709Z,58.70
2023-03-16T13:13:36.763Z,58.80
2023-03-16T13:16:11.139Z,58.70
2023-03-16T13:18:44.954Z,58.20
2023-03-16T13:21:39.764Z,57.30
2023-03-16T13:24:35.151Z,57.40
2023-03-16T13:27:34.500Z,57.60
2023-03-16T13:30:27.772Z,58.20
2023-03-16T13:33:21.162Z,58.60
2023-03-16T13:35:52.914Z,58.20
2023-03-16T13:38:25.929Z,59.20
2023-03-16T13:41:02.125Z,61.00
2023-03-16T13:43:33.244Z,61.00
2023-03-16T13:46:04.136Z,61.00
2023-03-16T13:48:37.814Z,60.40
2023-03-16T13:51:17.811Z,59.80
2023-03-16T13:53:47.998Z,61.20
2023-03-16T13:56:24.061Z,60.30
2023-03-16T13:58:53.990Z,58.80
2023-03-16T14:01:30.862Z,58.50
2023-03-16T14:04:08.749Z,58.70
2023-03-16T14:06:38.141Z,58.40
2023-03-16T14:09:15.377Z,58.30
2023-03-16T14:11:45.043Z,58.60
2023-03-16T14:14:16.102Z,59.60
2023-03-16T14:16:44.854Z,59.60
2023-03-16T14:19:26.126Z,59.00
2023-03-16T14:21:54.813Z,58.20
2023-03-16T14:24:34.976Z,58.30
2023-03-16T14:27:23.660Z,58.00
2023-03-16T14:30:20.518Z,57.90
2023-03-16T14:33:07.036Z,57.30
2023-03-16T14:35:45.661Z,57.70
2023-03-16T14:38:30.224Z,58.90
2023-03-16T14:41:23.840Z,58.30
2023-03-16T14:43:56.421Z,58.20
2023-03-16T14:46:33.304Z,58.20
2023-03-16T14:49:31.983Z,58.30
2023-03-16T14:52:03.547Z,58.80
2023-03-16T14:54:31.954Z,58.80
2023-03-16T14:57:04.033Z,59.50
2023-03-16T14:59:33.403Z,60.00
2023-03-16T15:02:02.131Z,59.00
2023-03-16T15:04:35.065Z,58.50
2023-03-16T15:07:19.707Z,58.80
2023-03-16T15:09:49.937Z,60.00
2023-03-16T15:12:19.938Z,59.00
2023-03-16T15:15:06.929Z,59.00
2023-03-16T15:17:35.577Z,59.60
2023-03-16T15:20:05.486Z,59.20
2023-03-16T15:22:38.244Z,60.00
2023-03-16T15:25:37.706Z,61.50
2023-03-16T15:28:18.395Z,61.40
2023-03-16T15:30:54.831Z,62.10
2023-03-16T15:33:23.732Z,62.50
2023-03-16T15:35:53.625Z,62.80
2023-03-16T15:38:28.718Z,63.00
2023-03-16T15:40:57.009Z,63.10
2023-03-16T15:43:29.062Z,64.00
2023-03-16T15:45:58.983Z,64.60
2023-03-16T15:48:27.507Z,64.40
2023-03-16T15:51:00.762Z,64.80
2023-03-16T15:53:43.388Z,64.70
2023-03-16T15:56:14.298Z,64.50
2023-03-16T15:58:45.833Z,63.60
2023-03-16T16:01:31.487Z,64.80
2023-03-16T16:04:00.841Z,63.50
2023-03-16T16:06:30.859Z,63.80
2023-03-16T16:08:59.851Z,64.40
2023-03-16T16:11:28.483Z,64.80
2023-03-16T16:13:58.017Z,65.10
2023-03-16T16:16:30.170Z,64.00
2023-03-16T16:18:59.007Z,63.80
2023-03-16T16:21:29.267Z,63.70
2023-03-16T16:23:58.003Z,63.70
2023-03-16T16:26:48.341Z,63.90
2023-03-16T16:29:24.015Z,63.80
2023-03-16T16:31:52.643Z,64.40
2023-03-16T16:34:24.657Z,64.80
2023-03-16T16:36:57.434Z,65.00
2023-03-16T16:39:26.460Z,65.10
2023-03-16T16:41:56.694Z,65.40
2023-03-16T16:44:28.128Z,65.60
2023-03-16T16:46:56.681Z,65.80
2023-03-16T16:49:31.123Z,66.10
2023-03-16T16:51:59.944Z,66.60
2023-03-16T16:54:30.152Z,66.90
2023-03-16T16:56:59.100Z,67.20
2023-03-16T16:59:33.521Z,67.60
2023-03-16T17:02:02.387Z,67.70
2023-03-16T17:04:31.464Z,67.90
2023-03-16T17:07:02.323Z,68.00
2023-03-16T17:09:31.232Z,68.20
2023-03-16T17:12:01.210Z,68.30
2023-03-16T17:14:31.591Z,68.40
2023-03-16T17:17:05.143Z,68.70
2023-03-16T17:19:34.079Z,68.90
2023-03-16T17:22:02.504Z,69.10
2023-03-16T17:24:31.580Z,69.30
2023-03-16T17:27:00.200Z,69.40
2023-03-16T17:29:36.110Z,69.40
2023-03-16T17:32:11.349Z,69.40
2023-03-16T17:34:39.973Z,69.70
2023-03-16T17:37:19.764Z,70.00
2023-03-16T17:39:49.143Z,70.40
2023-03-16T17:42:19.084Z,70.70
2023-03-16T17:44:52.125Z,70.90
2023-03-16T17:47:27.811Z,71.10
2023-03-16T17:49:57.272Z,72.10
2023-03-16T17:52:26.984Z,71.50
2023-03-16T17:54:56.060Z,71.60
2023-03-16T17:57:32.666Z,71.90
2023-03-16T18:00:02.259Z,72.00
2023-03-16T18:02:44.920Z,72.20
2023-03-16T18:05:22.298Z,72.40
2023-03-16T18:07:51.872Z,72.60
2023-03-16T18:10:28.618Z,72.80
2023-03-16T18:13:22.662Z,72.80
2023-03-16T18:15:52.135Z,73.10
2023-03-16T18:18:23.274Z,73.40
2023-03-16T18:20:54.951Z,73.50
2023-03-16T18:23:29.297Z,73.80
2023-03-16T18:26:03.788Z,74.00
2023-03-16T18:28:32.805Z,74.10
2023-03-16T18:31:02.435Z,74.20
2023-03-16T18:33:36.564Z,74.40
2023-03-16T18:36:08.169Z,74.40
2023-03-16T18:38:39.470Z,74.70
2023-03-16T18:41:18.630Z,74.60
2023-03-16T18:43:47.492Z,74.60
2023-03-16T18:46:36.422Z,74.60
2023-03-16T18:49:26.556Z,74.60
2023-03-16T18:51:56.138Z,74.70
2023-03-16T18:54:35.406Z,74.70
2023-03-16T18:57:11.477Z,74.80
2023-03-16T18:59:39.889Z,75.00
2023-03-16T19:02:28.793Z,75.20
2023-03-16T19:04:58.420Z,75.20
2023-03-16T19:07:42.437Z,75.50
2023-03-16T19:10:22.544Z,75.70
2023-03-16T19:12:51.310Z,76.10
2023-03-16T19:15:28.589Z,77.10
2023-03-16T19:17:58.314Z,77.50
2023-03-16T19:20:29.864Z,77.80
2023-03-16T19:23:13.932Z,78.10
2023-03-16T19:25:42.468Z,78.40
2023-03-16T19:28:16.138Z,78.90
2023-03-16T19:30:45.914Z,79.10
2023-03-16T19:33:23.383Z,79.40
2023-03-16T19:35:52.841Z,79.70
2023-03-16T19:38:22.929Z,80.00
2023-03-16T19:41:01.397Z,80.20
2023-03-16T19:43:30.310Z,80.40
2023-03-16T19:45:58.700Z,80.60
2023-03-16T19:48:33.921Z,80.80
2023-03-16T19:51:02.331Z,81.10
2023-03-16T19:53:30.996Z,81.20
2023-03-16T19:55:59.542Z,81.40
2023-03-16T19:58:38.759Z,81.40
2023-03-16T20:01:16.703Z,81.70
2023-03-16T20:03:47.707Z,81.80
2023-03-16T20:06:19.173Z,81.90
2023-03-16T20:08:48.261Z,82.00
2023-03-16T20:11:30.968Z,82.00
2023-03-16T20:13:59.963Z,82.20
2023-03-16T20:16:30.149Z,82.30
2023-03-16T20:19:05.342Z,82.40
2023-03-16T20:21:33.976Z,82.40
2023-03-16T20:24:03.569Z,82.60
2023-03-16T20:26:33.269Z,82.60
2023-03-16T20:29:02.106Z,82.40
2023-03-16T20:31:34.667Z,82.50
2023-03-16T20:34:03.577Z,82.50
2023-03-16T20:36:32.080Z,82.60
2023-03-16T20:39:00.927Z,82.40
2023-03-16T20:41:32.410Z,82.50
2023-03-16T20:44:02.048Z,82.50
2023-03-16T20:46:32.457Z,82.70
2023-03-16T20:49:01.156Z,82.60
2023-03-16T20:51:29.506Z,82.80
2023-03-16T20:53:58.175Z,82.80
2023-03-16T20:56:26.781Z,82.90
2023-03-16T20:58:56.389Z,82.90
2023-03-16T21:01:25.037Z,83.00
2023-03-16T21:03:55.675Z,83.00
2023-03-16T21:06:27.400Z,83.10
2023-03-16T21:08:58.544Z,83.10
2023-03-16T21:11:32.774Z,83.00
2023-03-16T21:14:01.426Z,82.80
2023-03-16T21:16:30.430Z,82.80
2023-03-16T21:19:00.197Z,82.90
2023-03-16T21:21:28.756Z,82.90
2023-03-16T21:23:57.853Z,82.90
2023-03-16T21:26:33.126Z,82.90
2023-03-16T21:29:07.051Z,82.80
2023-03-16T21:31:35.580Z,82.80
2023-03-16T21:34:05.782Z,82.80
2023-03-16T21:36:34.045Z,82.90
2023-03-16T21:39:05.600Z,82.70
2023-03-16T21:41:34.008Z,82.50
2023-03-16T21:44:03.537Z,82.60
2023-03-16T21:46:32.611Z,83.30
2023-03-16T21:49:03.728Z,82.30
2023-03-16T21:51:33.133Z,82.20
2023-03-16T21:54:01.888Z,81.80
2023-03-16T21:56:30.456Z,82.20
2023-03-16T21:58:59.104Z,81.90
2023-03-16T22:01:32.622Z,82.00
2023-03-16T22:04:27.851Z,81.60
2023-03-16T22:06:56.327Z,81.50
2023-03-16T22:09:30.296Z,81.10
2023-03-16T22:11:58.987Z,80.70
2023-03-16T22:14:28.034Z,81.00
2023-03-16T22:16:57.060Z,81.10
2023-03-16T22:19:27.579Z,81.00
2023-03-16T22:21:57.033Z,80.90
2023-03-16T22:24:28.217Z,80.60
2023-03-16T22:26:56.755Z,80.80
2023-03-16T22:29:33.679Z,80.60
2023-03-16T22:32:05.486Z,80.60
2023-03-16T22:34:42.276Z,80.60
2023-03-16T22:37:12.708Z,80.50
2023-03-16T22:39:41.607Z,80.50
2023-03-16T22:42:38.642Z,80.50
2023-03-16T22:45:28.308Z,80.50
2023-03-16T22:47:57.970Z,80.80
2023-03-16T22:50:30.884Z,80.70
2023-03-16T22:53:01.043Z,80.60
2023-03-16T22:55:39.903Z,80.60
2023-03-16T22:58:25.756Z,80.30
2023-03-16T23:00:55.162Z,80.60
2023-03-16T23:03:23.692Z,80.40
2023-03-16T23:05:52.485Z,80.40
2023-03-16T23:08:23.223Z,80.20
2023-03-16T23:10:52.326Z,80.20
2023-03-16T23:13:24.285Z,80.20
2023-03-16T23:15:53.670Z,80.40
2023-03-16T23:18:25.106Z,80.20
2023-03-16T23:20:53.931Z,80.10
2023-03-16T23:23:22.727Z,80.00
2023-03-16T23:25:51.507Z,79.80
2023-03-16T23:28:23.498Z,80.30
2023-03-16T23:30:52.213Z,80.20
2023-03-16T23:33:20.499Z,80.30
2023-03-16T23:35:49.212Z,79.90
2023-03-16T23:38:17.674Z,80.20
2023-03-16T23:40:46.849Z,79.90
2023-03-16T23:43:15.288Z,80.80
2023-03-16T23:45:46.738Z,79.70
2023-03-16T23:48:19.332Z,79.80
2023-03-16T23:50:49.484Z,79.80
2023-03-16T23:53:18.856Z,79.80
2023-03-16T23:55:48.289Z,80.00
2023-03-16T23:58:17.303Z,79.80
